Data Viewer
| City | State | Eastern Time | Source | 1 Hour Temp Max | 1 Hour Temp Min | 1 Hour Dew Point Max | 1 Hour Dew Point Min | 1 Hour RH Max | 1 Hour RH Min | 1 Hour BP Max | 1 Hour BP Min | 1 Hour Precip | 1 Hour Wind Max | 1 Hour Wind Max Dir |
|---|---|---|---|---|---|---|---|---|---|---|---|---|---|---|
| Little Egg Harbor Twp. | NJ | 2026-05-03 16:00 | Mesonet | 58 | 56 | 39 | 32 | 51 | 37 | 29.94 | 29.90 | 0.00 | 35 | NNW |
| Little Egg Harbor Twp. | NJ | 2026-05-04 05:00 | Mesonet | 51 | 50 | 43 | 41 | 74 | 71 | 30.03 | 30.01 | 0.00 | 18 | WSW |
| Little Egg Harbor Twp. | NJ | 2026-05-04 14:00 | Mesonet | 64 | 62 | 53 | 51 | 69 | 63 | 29.97 | 29.93 | 0.00 | 27 | SW |
| Little Egg Harbor Twp. | NJ | 2026-05-04 13:00 | Mesonet | 65 | 62 | 53 | 50 | 66 | 60 | 29.99 | 29.95 | 0.00 | 26 | SW |
| Little Egg Harbor Twp. | NJ | 2026-05-04 12:00 | Mesonet | 63 | 62 | 51 | 48 | 66 | 59 | 30.00 | 29.97 | 0.00 | 26 | SW |
| Little Egg Harbor Twp. | NJ | 2026-05-04 11:00 | Mesonet | 62 | 60 | 49 | 47 | 64 | 59 | 30.00 | 29.98 | 0.00 | 25 | SW |
| Little Egg Harbor Twp. | NJ | 2026-05-04 10:00 | Mesonet | 60 | 58 | 49 | 47 | 68 | 64 | 30.02 | 29.99 | 0.00 | 23 | SW |
| Little Egg Harbor Twp. | NJ | 2026-05-04 09:00 | Mesonet | 59 | 55 | 48 | 45 | 72 | 66 | 30.03 | 30.00 | 0.00 | 24 | WSW |
| Little Egg Harbor Twp. | NJ | 2026-05-04 08:00 | Mesonet | 56 | 53 | 47 | 44 | 73 | 68 | 30.04 | 30.01 | 0.00 | 20 | WSW |
| Little Egg Harbor Twp. | NJ | 2026-05-04 07:00 | Mesonet | 53 | 50 | 45 | 42 | 76 | 73 | 30.04 | 30.01 | 0.00 | 20 | WSW |
| Little Egg Harbor Twp. | NJ | 2026-05-04 06:00 | Mesonet | 50 | 49 | 42 | 41 | 73 | 71 | 30.03 | 30.01 | 0.00 | 19 | SW |
| Little Egg Harbor Twp. | NJ | 2026-05-04 04:00 | Mesonet | 52 | 51 | 44 | 43 | 74 | 72 | 30.03 | 30.00 | 0.00 | 21 | WSW |
| Little Egg Harbor Twp. | NJ | 2026-05-03 17:00 | Mesonet | 59 | 58 | 40 | 31 | 50 | 36 | 29.92 | 29.90 | 0.00 | 33 | NW |
| Little Egg Harbor Twp. | NJ | 2026-05-04 03:00 | Mesonet | 52 | 52 | 44 | 42 | 73 | 69 | 30.01 | 29.99 | 0.00 | 20 | WSW |
| Little Egg Harbor Twp. | NJ | 2026-05-04 02:00 | Mesonet | 52 | 52 | 44 | 42 | 72 | 68 | 30.01 | 29.98 | 0.00 | 18 | WSW |
| Little Egg Harbor Twp. | NJ | 2026-05-04 01:00 | Mesonet | 53 | 52 | 44 | 43 | 72 | 69 | 30.00 | 29.98 | 0.00 | 19 | W |
| Little Egg Harbor Twp. | NJ | 2026-05-04 00:00 | Mesonet | 53 | 52 | 43 | 40 | 71 | 63 | 29.99 | 29.97 | 0.00 | 18 | WNW |
| Little Egg Harbor Twp. | NJ | 2026-05-03 23:00 | Mesonet | 53 | 52 | 41 | 39 | 65 | 59 | 29.99 | 29.97 | 0.00 | 16 | WNW |
| Little Egg Harbor Twp. | NJ | 2026-05-03 22:00 | Mesonet | 54 | 53 | 42 | 40 | 66 | 60 | 29.99 | 29.96 | 0.00 | 14 | WNW |
| Little Egg Harbor Twp. | NJ | 2026-05-03 21:00 | Mesonet | 55 | 53 | 42 | 39 | 64 | 54 | 29.97 | 29.94 | 0.00 | 12 | WNW |
| Little Egg Harbor Twp. | NJ | 2026-05-03 20:00 | Mesonet | 58 | 55 | 41 | 35 | 58 | 42 | 29.96 | 29.92 | 0.00 | 24 | WNW |
| Little Egg Harbor Twp. | NJ | 2026-05-03 19:00 | Mesonet | 59 | 58 | 40 | 32 | 51 | 36 | 29.94 | 29.91 | 0.00 | 30 | NW |
| Little Egg Harbor Twp. | NJ | 2026-05-03 18:00 | Mesonet | 60 | 59 | 41 | 31 | 50 | 35 | 29.93 | 29.90 | 0.00 | 33 | WNW |
| Little Egg Harbor Twp. | NJ | 2026-05-04 15:00 | Mesonet | 63 | 62 | 52 | 50 | 69 | 65 | 29.95 | 29.92 | 0.00 | 26 | SW |
data collection created in 0.0081610679626465 (queried in 0.002136) rendered in: 5.3882598876953E-5

